Time;durP1;ratioP1;P1;durP2;ratioP2;P2;SDS_P1;SDS_P2;PMS_P1;PMS_P2;Temp;Humidity;BMP_temperature;BMP_pressure;BME280_temperature;BME280_humidity;BME280_pressure;Samples;Min_cycle;Max_cycle;Signal;HPM_P1;HPM_P2
2022/08/31 00:04:42;;;;;;;16.48;14.73;;;;;;;23.98;78.21;99211.50;5112920;28;20225;-58
2022/08/31 00:07:09;;;;;;;18.65;15.18;;;;;;;23.98;78.38;99210.66;5112773;28;20289;-58
2022/08/31 00:09:36;;;;;;;18.48;14.43;;;;;;;24.02;78.29;99210.25;5112958;28;20205;-58
2022/08/31 00:12:03;;;;;;;16.60;14.88;;;;;;;24.03;78.46;99195.19;5112891;28;20199;-58
2022/08/31 00:14:31;;;;;;;15.75;14.25;;;;;;;23.95;77.62;99179.09;5112807;28;20277;-59
2022/08/31 00:16:58;;;;;;;19.23;14.93;;;;;;;24.09;77.47;99198.13;5110013;28;20277;-59
2022/08/31 00:19:25;;;;;;;19.95;14.85;;;;;;;24.00;77.69;99195.44;5112122;28;20238;-59
2022/08/31 00:21:53;;;;;;;16.83;15.05;;;;;;;23.93;78.03;99195.16;5112833;28;20213;-58
2022/08/31 00:24:20;;;;;;;18.02;16.27;;;;;;;23.96;77.84;99197.53;5112453;28;20216;-58
2022/08/31 00:26:47;;;;;;;17.42;15.15;;;;;;;23.97;77.49;99195.72;5112660;28;20281;-59
2022/08/31 00:29:15;;;;;;;15.63;14.13;;;;;;;24.03;77.13;99200.50;5112307;28;20198;-59
2022/08/31 00:31:42;;;;;;;17.38;14.93;;;;;;;24.05;77.04;99203.81;5112894;28;20216;-58
2022/08/31 00:34:09;;;;;;;17.17;15.07;;;;;;;24.00;77.51;99198.94;5112645;28;20195;-55
2022/08/31 00:36:36;;;;;;;16.73;15.07;;;;;;;24.02;78.05;99198.81;5112677;28;20199;-55
2022/08/31 00:39:06;;;;;;;16.60;14.95;;;;;;;23.96;78.88;99191.38;5112169;28;20201;-55
2022/08/31 00:41:38;;;;;;;17.25;15.15;;;;;;;23.80;80.17;99200.72;5112171;28;20195;-55
2022/08/31 00:44:07;;;;;;;17.10;15.40;;;;;;;23.80;80.52;99198.06;5112239;28;20205;-55
2022/08/31 00:46:38;;;;;;;16.60;14.95;;;;;;;23.75;81.52;99196.78;5112044;28;20224;-57
2022/08/31 00:49:09;;;;;;;18.38;16.60;;;;;;;23.63;82.69;99196.06;5111476;28;20195;-58
2022/08/31 00:51:39;;;;;;;18.77;15.32;;;;;;;23.55;83.71;99190.59;5112031;28;20199;-58
2022/08/31 00:54:09;;;;;;;18.25;16.20;;;;;;;23.35;85.15;99192.31;5112140;28;20234;-58
2022/08/31 00:56:37;;;;;;;18.10;16.20;;;;;;;23.27;86.14;99193.91;5112549;28;20247;-58
2022/08/31 00:59:04;;;;;;;18.08;16.20;;;;;;;23.19;86.59;99189.28;5111722;28;20225;-59
2022/08/31 01:01:31;;;;;;;18.02;16.23;;;;;;;23.17;86.54;99192.06;5111792;28;20205;-58
2022/08/31 01:03:58;;;;;;;18.48;16.73;;;;;;;23.02;86.43;99166.91;5111915;28;20297;-59
2022/08/31 01:06:26;;;;;;;17.52;15.68;;;;;;;23.11;86.69;99189.94;5111653;28;20632;-58
2022/08/31 01:08:55;;;;;;;17.40;15.73;;;;;;;23.03;86.90;99181.81;5111770;28;20190;-58
2022/08/31 01:11:24;;;;;;;17.15;15.55;;;;;;;23.01;87.44;99185.56;5111582;28;20206;-58
2022/08/31 01:13:52;;;;;;;26.67;16.65;;;;;;;23.03;87.62;99188.91;5111843;28;20203;-58
2022/08/31 01:16:24;;;;;;;17.85;15.93;;;;;;;22.97;88.43;99184.16;5111766;28;20216;-54
2022/08/31 01:18:56;;;;;;;17.00;15.38;;;;;;;22.95;88.97;99188.72;5111489;28;20729;-54
2022/08/31 01:21:29;;;;;;;19.98;16.65;;;;;;;22.94;89.18;99185.25;5111394;28;20194;-58
2022/08/31 01:24:01;;;;;;;17.50;15.60;;;;;;;22.87;89.69;99186.75;5111400;28;20203;-58
2022/08/31 01:26:31;;;;;;;17.85;16.08;;;;;;;22.92;89.32;99176.59;5111243;28;20224;-55
2022/08/31 01:29:03;;;;;;;17.13;15.25;;;;;;;22.84;89.50;99173.75;5111194;28;20197;-54
2022/08/31 01:31:33;;;;;;;17.80;15.90;;;;;;;22.89;89.05;99179.50;5111367;28;20672;-55
2022/08/31 01:34:00;;;;;;;17.13;15.38;;;;;;;22.96;88.24;99178.00;5111275;28;25112;-54
2022/08/31 01:36:28;;;;;;;17.98;16.10;;;;;;;22.89;88.13;99168.09;5110956;28;20153;-54
2022/08/31 01:38:55;;;;;;;20.38;16.67;;;;;;;22.93;87.96;99185.38;5110980;28;25058;-54
2022/08/31 01:41:23;;;;;;;16.70;15.20;;;;;;;22.86;88.34;99179.75;5110868;28;25128;-54
2022/08/31 01:43:51;;;;;;;19.13;15.98;;;;;;;22.93;87.60;99191.50;5111315;28;20570;-54
2022/08/31 01:46:19;;;;;;;20.42;15.90;;;;;;;22.87;87.52;99186.75;5110955;28;20238;-54
2022/08/31 01:48:47;;;;;;;19.10;16.50;;;;;;;22.88;87.34;99190.22;5110999;28;20237;-54
2022/08/31 01:53:59;;;;;;;23.13;16.38;;;;;;;22.84;87.13;99186.16;5470913;22;20237;-53
2022/08/31 01:56:30;;;;;;;20.27;15.77;;;;;;;22.87;87.05;99186.75;5050407;28;20559;-54
2022/08/31 01:58:57;;;;;;;20.08;16.52;;;;;;;22.75;86.68;99169.22;5050267;28;20207;-54
2022/08/31 02:01:28;;;;;;;20.27;16.73;;;;;;;22.88;86.11;99185.78;5049755;28;20279;-58
2022/08/31 02:03:55;;;;;;;19.05;15.70;;;;;;;22.88;86.14;99180.47;5050518;28;20668;-58
2022/08/31 02:06:22;;;;;;;20.65;17.00;;;;;;;22.91;86.03;99182.84;5050173;28;20681;-54
2022/08/31 02:08:49;;;;;;;18.75;15.68;;;;;;;23.00;85.30;99171.50;5050039;28;20196;-54
2022/08/31 02:11:16;;;;;;;20.55;16.88;;;;;;;23.04;84.76;99169.41;5050256;28;20595;-57
2022/08/31 02:13:45;;;;;;;19.67;16.33;;;;;;;23.02;84.77;99166.09;5050172;28;20288;-57
2022/08/31 02:16:12;;;;;;;21.08;15.45;;;;;;;22.97;85.42;99169.09;5050151;28;20676;-58
2022/08/31 02:18:38;;;;;;;22.15;16.92;;;;;;;22.92;86.11;99166.00;5050110;28;20204;-58
2022/08/31 02:21:06;;;;;;;21.45;16.13;;;;;;;22.91;86.22;99172.25;5050297;28;20299;-54
2022/08/31 02:23:33;;;;;;;19.08;16.77;;;;;;;22.91;86.13;99171.44;5050299;28;20292;-54
2022/08/31 02:26:00;;;;;;;23.00;16.70;;;;;;;22.88;86.74;99166.41;5050037;28;20220;-57
2022/08/31 02:28:27;;;;;;;17.52;15.82;;;;;;;22.83;87.28;99172.06;5049993;28;20192;-57
2022/08/31 02:30:55;;;;;;;25.40;16.88;;;;;;;22.81;87.46;99166.06;5049952;28;20197;-58
2022/08/31 02:33:23;;;;;;;17.92;16.15;;;;;;;22.81;87.54;99164.25;5049908;28;20197;-58
2022/08/31 02:35:50;;;;;;;18.58;16.45;;;;;;;22.81;87.32;99164.25;5050073;28;20283;-58
2022/08/31 02:38:17;;;;;;;18.83;15.80;;;;;;;22.84;87.30;99167.63;5050000;28;20665;-57
2022/08/31 02:40:44;;;;;;;18.45;15.80;;;;;;;22.77;87.84;99173.44;5049934;28;20199;-58
2022/08/31 02:43:13;;;;;;;21.48;15.90;;;;;;;22.77;88.04;99162.03;5049710;28;20219;-58
2022/08/31 02:45:40;;;;;;;19.20;16.58;;;;;;;22.77;88.04;99162.03;5050102;28;20224;-57
2022/08/31 02:48:09;;;;;;;17.10;15.43;;;;;;;22.74;88.29;99163.09;5050095;28;20232;-54
2022/08/31 02:50:40;;;;;;;27.73;16.48;;;;;;;22.71;88.26;99155.41;5049734;28;20745;-57
2022/08/31 02:53:08;;;;;;;18.58;16.65;;;;;;;22.75;87.88;99156.84;5049722;28;20196;-59
2022/08/31 02:55:35;;;;;;;18.63;16.52;;;;;;;22.79;87.64;99152.16;5049344;28;20319;-59
2022/08/31 02:58:02;;;;;;;23.90;16.77;;;;;;;22.70;88.20;99156.38;5049851;28;20202;-59
2022/08/31 03:00:29;;;;;;;20.55;16.30;;;;;;;22.68;88.65;99157.50;5049460;28;20211;-58
2022/08/31 03:02:56;;;;;;;22.63;16.35;;;;;;;22.61;88.91;99151.00;5049804;28;20587;-59
2022/08/31 03:05:25;;;;;;;18.65;16.33;;;;;;;22.61;89.28;99148.38;5049408;28;20316;-59
2022/08/31 03:07:52;;;;;;;19.25;15.38;;;;;;;22.50;90.09;99151.06;5043731;28;20283;-59
2022/08/31 03:10:22;;;;;;;18.27;16.17;;;;;;;22.46;90.56;99159.25;5041009;28;20219;-59
2022/08/31 03:12:50;;;;;;;18.20;15.85;;;;;;;22.36;90.50;99129.25;5039550;28;20201;-56
2022/08/31 03:15:19;;;;;;;21.77;15.80;;;;;;;22.44;90.71;99155.09;5041288;28;20201;-59
2022/08/31 03:17:46;;;;;;;18.08;16.25;;;;;;;22.41;90.74;99150.88;5042131;28;20207;-57
2022/08/31 03:20:14;;;;;;;16.52;15.00;;;;;;;22.45;90.51;99141.75;5042615;28;20204;-55
2022/08/31 03:22:42;;;;;;;17.20;15.55;;;;;;;22.51;90.10;99145.66;5043256;28;20197;-55
2022/08/31 03:25:10;;;;;;;18.10;15.82;;;;;;;22.55;89.17;99144.44;5034865;28;20201;-55
2022/08/31 03:27:38;;;;;;;17.50;15.68;;;;;;;22.50;89.18;99143.13;5033996;28;20292;-54
2022/08/31 03:30:09;;;;;;;20.08;15.43;;;;;;;22.55;88.94;99144.44;5033039;28;20852;-54
2022/08/31 03:32:37;;;;;;;16.55;15.00;;;;;;;22.52;88.31;99136.75;5035352;28;20201;-56
2022/08/31 03:35:05;;;;;;;17.33;15.57;;;;;;;22.50;88.78;99143.13;5065962;28;20207;-56
2022/08/31 03:37:33;;;;;;;16.67;15.13;;;;;;;22.46;87.67;99135.44;5063337;28;20638;-55
2022/08/31 03:40:01;;;;;;;17.10;15.30;;;;;;;22.52;87.87;99144.69;5052283;28;20609;-56
2022/08/31 03:42:28;;;;;;;17.60;15.35;;;;;;;22.57;86.60;99142.53;5052442;28;20226;-55
2022/08/31 03:44:55;;;;;;;16.48;14.95;;;;;;;22.57;85.72;99141.69;5052639;28;20207;-56
2022/08/31 03:47:23;;;;;;;21.83;15.05;;;;;;;22.57;84.99;99133.75;5051779;28;20307;-55
2022/08/31 03:49:50;;;;;;;21.30;14.40;;;;;;;22.71;84.27;99144.81;5051789;28;20199;-56
2022/08/31 03:52:17;;;;;;;18.13;14.65;;;;;;;22.78;83.31;99148.66;5051571;28;20200;-56
2022/08/31 03:54:43;;;;;;;20.17;16.05;;;;;;;22.80;83.17;99152.00;5051031;28;20234;-56
2022/08/31 03:57:12;;;;;;;28.20;25.13;;;;;;;22.93;82.37;99162.38;5051013;28;20203;-56
2022/08/31 03:59:39;;;;;;;26.90;16.60;;;;;;;22.99;81.64;99155.75;5051882;28;20196;-56
2022/08/31 04:02:06;;;;;;;18.90;16.88;;;;;;;22.97;81.71;99163.81;5052218;28;20208;-56
2022/08/31 04:04:33;;;;;;;23.80;18.25;;;;;;;23.00;81.97;99166.22;5052228;28;20283;-56
2022/08/31 04:07:00;;;;;;;27.95;22.27;;;;;;;23.04;81.89;99177.34;5052642;28;20726;-56
2022/08/31 04:09:27;;;;;;;36.88;32.35;;;;;;;23.09;81.70;99176.00;5052238;28;20211;-53
2022/08/31 04:11:54;;;;;;;26.58;19.15;;;;;;;23.10;81.67;99174.19;5052269;28;20211;-54
2022/08/31 04:14:22;;;;;;;17.58;15.82;;;;;;;23.10;81.21;99185.63;5052156;28;20200;-54
2022/08/31 04:16:49;;;;;;;22.65;16.55;;;;;;;23.13;80.98;99188.03;5052401;28;20196;-55
2022/08/31 04:19:16;;;;;;;29.80;17.00;;;;;;;23.15;80.70;99182.56;5042806;28;20189;-55
2022/08/31 04:21:44;;;;;;;16.27;14.65;;;;;;;23.12;80.58;99189.00;5049088;28;20201;-55
2022/08/31 04:24:11;;;;;;;16.17;14.65;;;;;;;23.14;80.43;99187.03;5051791;28;20201;-55
2022/08/31 04:26:40;;;;;;;17.13;15.30;;;;;;;23.25;80.34;99190.59;5051883;28;20320;-55
2022/08/31 04:29:08;;;;;;;19.83;15.07;;;;;;;23.34;79.73;99192.44;5051931;28;20579;-55
2022/08/31 04:31:37;;;;;;;16.40;14.75;;;;;;;23.42;79.12;99190.78;5050811;28;20289;-59
2022/08/31 04:34:04;;;;;;;19.77;16.92;;;;;;;23.45;78.58;99187.88;5049790;28;20207;-59
2022/08/31 04:36:31;;;;;;;19.70;15.18;;;;;;;23.41;78.27;99167.06;5050375;28;20197;-59
2022/08/31 04:39:00;;;;;;;16.17;14.50;;;;;;;23.43;77.49;99162.50;5049582;28;20208;-59
2022/08/31 04:41:30;;;;;;;17.05;15.32;;;;;;;23.60;77.19;99180.41;5050683;28;20189;-58
2022/08/31 04:43:58;;;;;;;20.77;16.42;;;;;;;23.60;77.20;99177.75;5051087;28;20203;-59
2022/08/31 04:46:26;;;;;;;22.33;15.88;;;;;;;23.60;77.44;99175.13;5050724;28;20231;-59
2022/08/31 04:48:54;;;;;;;19.50;16.02;;;;;;;23.53;78.16;99177.47;5051152;28;20213;-59
2022/08/31 04:51:23;;;;;;;18.92;16.13;;;;;;;23.48;77.92;99163.75;5051425;28;20196;-58
2022/08/31 04:53:51;;;;;;;16.90;14.88;;;;;;;23.32;78.30;99146.69;5051528;28;20668;-60
2022/08/31 04:56:21;;;;;;;20.20;16.25;;;;;;;23.68;77.51;99174.47;5051484;28;20196;-58
2022/08/31 04:58:50;;;;;;;19.67;15.98;;;;;;;23.82;76.65;99164.28;5051335;28;20199;-58
2022/08/31 05:01:19;;;;;;;22.15;16.35;;;;;;;23.94;76.70;99174.78;5051101;28;20197;-58
2022/08/31 05:03:51;;;;;;;22.75;16.15;;;;;;;24.31;75.05;99173.19;5051460;28;20588;-58
2022/08/31 05:06:22;;;;;;;18.35;16.55;;;;;;;25.10;71.26;99176.44;5051369;28;20220;-55
2022/08/31 05:08:53;;;;;;;18.27;15.40;;;;;;;25.96;66.69;99179.72;5051420;28;20695;-55
2022/08/31 05:11:21;;;;;;;16.58;14.60;;;;;;;27.05;61.97;99179.38;5050982;28;20701;-54
2022/08/31 05:13:48;;;;;;;18.50;14.40;;;;;;;28.31;56.52;99188.44;5051162;28;20262;-58
2022/08/31 05:16:16;;;;;;;19.33;13.95;;;;;;;29.62;51.85;99188.13;5050960;28;20287;-59
2022/08/31 05:18:45;;;;;;;15.70;14.20;;;;;;;30.69;48.07;99192.69;5051056;28;20197;-59
2022/08/31 05:21:13;;;;;;;15.13;13.60;;;;;;;31.62;45.68;99186.88;5050106;28;20206;-59
2022/08/31 05:23:43;;;;;;;16.90;13.00;;;;;;;32.29;43.30;99195.56;5050575;28;20266;-59
2022/08/31 05:26:10;;;;;;;12.82;11.80;;;;;;;32.58;41.91;99199.16;5051029;28;20722;-59
2022/08/31 05:28:37;;;;;;;13.43;12.07;;;;;;;32.60;42.06;99189.88;5048447;28;20193;-59
2022/08/31 05:31:06;;;;;;;18.38;11.98;;;;;;;33.21;41.26;99192.00;5049876;28;20200;-55
2022/08/31 05:33:33;;;;;;;12.70;11.60;;;;;;;33.73;40.03;99195.03;5036004;28;20200;-55
2022/08/31 05:36:01;;;;;;;12.32;11.27;;;;;;;34.14;39.23;99195.00;5030565;28;20283;-56
2022/08/31 05:38:28;;;;;;;12.75;10.90;;;;;;;34.92;37.40;99193.47;5030461;28;20193;-56
2022/08/31 05:40:58;;;;;;;16.55;11.25;;;;;;;34.66;37.60;99190.72;5030627;28;20194;-56
2022/08/31 05:43:25;;;;;;;15.45;11.45;;;;;;;34.42;37.83;99189.50;5030497;28;20228;-55
2022/08/31 05:45:53;;;;;;;19.48;10.98;;;;;;;34.95;37.29;99194.91;5040919;28;20197;-56
2022/08/31 05:48:21;;;;;;;11.40;10.15;;;;;;;35.52;35.84;99186.13;5040135;28;20693;-56
2022/08/31 05:50:48;;;;;;;13.95;9.80;;;;;;;36.26;34.49;99187.47;5038613;28;20189;-56
2022/08/31 05:53:15;;;;;;;11.68;9.27;;;;;;;36.77;33.54;99184.63;5040413;28;20189;-56
2022/08/31 05:55:42;;;;;;;13.27;9.05;;;;;;;37.68;32.39;99192.09;5040010;28;20318;-56
2022/08/31 05:58:11;;;;;;;10.40;9.38;;;;;;;38.19;30.78;99190.81;5038766;28;20280;-54
2022/08/31 06:00:38;;;;;;;13.55;8.88;;;;;;;38.28;31.23;99194.84;5039652;28;20226;-54
2022/08/31 06:03:05;;;;;;;15.30;8.52;;;;;;;38.25;30.75;99192.59;5040493;28;20193;-55
2022/08/31 06:05:32;;;;;;;16.95;9.73;;;;;;;37.76;30.72;99192.59;5038184;28;20197;-58
2022/08/31 06:07:59;;;;;;;8.98;8.10;;;;;;;37.07;31.27;99191.00;5039216;28;20653;-55
2022/08/31 06:10:26;;;;;;;13.05;8.60;;;;;;;36.96;31.97;99199.03;5047112;28;20226;-55
2022/08/31 06:12:53;;;;;;;16.65;9.43;;;;;;;36.76;32.08;99193.81;5050067;28;20193;-55
2022/08/31 06:15:21;;;;;;;16.15;9.32;;;;;;;35.80;33.38;99183.13;5049862;28;20206;-54
2022/08/31 06:17:48;;;;;;;12.45;9.80;;;;;;;34.76;34.26;99190.38;5049837;28;20196;-56
2022/08/31 06:20:16;;;;;;;11.43;10.15;;;;;;;34.74;35.19;99193.25;5050054;28;20283;-55
2022/08/31 06:22:45;;;;;;;12.50;9.02;;;;;;;35.28;33.91;99182.25;5050153;28;20200;-55
2022/08/31 06:25:18;;;;;;;12.88;8.93;;;;;;;35.83;33.00;99190.81;5042968;28;20207;-55
2022/08/31 06:27:49;;;;;;;13.98;8.75;;;;;;;35.55;33.37;99190.28;5041209;28;20232;-55
2022/08/31 06:30:20;;;;;;;9.95;9.00;;;;;;;34.92;34.25;99198.03;5043255;28;20276;-55
2022/08/31 06:32:49;;;;;;;13.02;9.15;;;;;;;34.42;35.41;99196.75;5030327;28;20197;-55
2022/08/31 06:35:16;;;;;;;10.70;8.30;;;;;;;34.81;34.63;99198.66;5029997;28;20197;-55
2022/08/31 06:37:43;;;;;;;10.18;8.90;;;;;;;35.99;33.12;99205.69;5030033;28;20208;-55
2022/08/31 06:40:10;;;;;;;19.85;8.93;;;;;;;36.91;31.72;99204.31;5029922;28;20284;-58
2022/08/31 06:42:37;;;;;;;26.48;9.95;;;;;;;37.55;30.75;99211.16;5029674;28;20211;-57
2022/08/31 06:45:04;;;;;;;18.45;8.98;;;;;;;37.84;30.60;99210.41;5029732;28;20201;-57
2022/08/31 06:47:31;;;;;;;14.02;9.07;;;;;;;38.01;30.61;99214.16;5031678;28;20216;-57
2022/08/31 06:50:00;;;;;;;12.10;9.40;;;;;;;38.84;28.68;99199.81;5033950;28;20287;-58
2022/08/31 06:52:27;;;;;;;15.25;8.73;;;;;;;39.78;27.83;99214.19;5033970;28;20199;-59
2022/08/31 06:54:53;;;;;;;12.35;9.02;;;;;;;40.83;26.43;99217.31;5033470;28;20224;-54
2022/08/31 06:57:21;;;;;;;31.88;19.42;;;;;;;41.13;26.43;99216.16;5033527;28;20203;-54
2022/08/31 06:59:51;;;;;;;14.65;9.18;;;;;;;40.98;26.26;99208.53;5033918;28;20197;-61
2022/08/31 07:02:18;;;;;;;10.43;8.30;;;;;;;40.91;26.12;99203.28;5033685;28;20197;-58
2022/08/31 07:04:44;;;;;;;15.32;10.45;;;;;;;41.15;25.68;99209.38;5033652;28;20200;-58
2022/08/31 07:07:13;;;;;;;41.45;22.45;;;;;;;41.34;25.85;99215.34;5033576;28;20220;-58
2022/08/31 07:09:41;;;;;;;19.10;13.10;;;;;;;41.77;24.74;99190.03;5033482;28;20199;-58
2022/08/31 07:12:08;;;;;;;12.32;9.48;;;;;;;42.25;24.71;99200.16;5033383;28;20193;-58
2022/08/31 07:14:36;;;;;;;13.65;12.05;;;;;;;42.01;24.72;99212.44;5033453;28;20197;-58
2022/08/31 07:17:04;;;;;;;17.42;12.32;;;;;;;42.01;25.20;99213.25;5033622;28;20200;-58
2022/08/31 07:19:31;;;;;;;10.18;8.65;;;;;;;41.32;25.85;99201.97;5033794;28;20691;-58
2022/08/31 07:22:00;;;;;;;12.48;9.48;;;;;;;41.47;25.98;99206.81;5034054;28;20266;-58
2022/08/31 07:24:32;;;;;;;15.15;9.65;;;;;;;41.56;25.58;99208.06;5033105;28;20196;-58
2022/08/31 07:27:01;;;;;;;10.18;8.57;;;;;;;40.72;26.51;99201.06;5033282;28;20228;-58
2022/08/31 07:29:31;;;;;;;8.80;8.00;;;;;;;40.55;26.21;99203.72;5033298;28;20197;-54
2022/08/31 07:31:59;;;;;;;10.55;9.50;;;;;;;40.92;26.41;99199.47;5033312;28;20197;-54
2022/08/31 07:34:28;;;;;;;10.07;9.00;;;;;;;41.63;25.18;99205.16;5033233;28;20589;-54
2022/08/31 07:42:30;;;;;;;8.18;7.43;;;;;;;41.29;25.21;99201.69;5046908;28;20195;-58
2022/08/31 07:45:00;;;;;;;10.77;8.13;;;;;;;41.74;25.44;99200.66;5052900;28;20192;-58
2022/08/31 07:47:28;;;;;;;13.93;9.10;;;;;;;41.90;24.49;99202.47;5052492;28;20223;-58
2022/08/31 07:49:59;;;;;;;19.98;9.20;;;;;;;42.52;24.63;99202.06;5052830;28;20216;-58
2022/08/31 07:52:29;;;;;;;8.90;7.90;;;;;;;42.26;24.34;99199.06;5052587;28;20196;-58
2022/08/31 07:55:06;;;;;;;8.48;7.80;;;;;;;42.77;24.02;99205.06;5052436;28;20239;-58
2022/08/31 07:57:36;;;;;;;8.73;7.35;;;;;;;42.81;23.71;99203.44;5047186;28;20192;-58
2022/08/31 08:00:07;;;;;;;13.05;8.13;;;;;;;43.02;23.55;99191.56;5041891;28;20682;-58
2022/08/31 08:02:37;;;;;;;8.63;7.88;;;;;;;43.13;23.24;99189.69;5042447;28;20232;-58
2022/08/31 08:05:06;;;;;;;10.27;7.72;;;;;;;43.19;23.32;99190.59;5042781;28;20200;-58
2022/08/31 08:07:34;;;;;;;12.27;8.57;;;;;;;43.33;23.27;99184.41;5039484;28;20213;-54
2022/08/31 08:10:06;;;;;;;19.17;8.57;;;;;;;44.25;22.70;99187.50;5041738;28;20280;-54
2022/08/31 08:12:35;;;;;;;10.55;8.18;;;;;;;44.41;22.28;99187.25;5049721;28;20211;-58
2022/08/31 08:15:04;;;;;;;11.90;8.15;;;;;;;44.55;22.07;99186.72;5042703;28;20193;-57
2022/08/31 08:17:31;;;;;;;10.60;8.00;;;;;;;44.76;22.03;99189.19;5041978;28;20580;-57
2022/08/31 08:19:58;;;;;;;9.85;8.32;;;;;;;44.76;21.93;99177.41;5039652;28;20216;-57
2022/08/31 08:22:25;;;;;;;8.10;7.50;;;;;;;45.13;21.29;99177.94;5037904;28;20197;-58
2022/08/31 08:24:52;;;;;;;15.32;9.88;;;;;;;45.99;21.39;99182.25;5036245;28;20642;-58
2022/08/31 08:27:20;;;;;;;9.25;8.30;;;;;;;44.92;21.49;99172.75;5036801;28;20219;-57
2022/08/31 08:29:47;;;;;;;11.35;9.23;;;;;;;45.14;21.38;99174.09;5031684;28;20205;-61
2022/08/31 08:32:14;;;;;;;11.77;9.10;;;;;;;44.61;21.86;99171.91;5031340;28;20288;-56
2022/08/31 08:34:42;;;;;;;9.43;8.35;;;;;;;45.02;22.01;99173.53;5030133;28;20205;-62
2022/08/31 08:37:10;;;;;;;10.68;8.18;;;;;;;45.43;21.49;99173.44;5030465;28;20629;-63
2022/08/31 08:39:37;;;;;;;9.43;8.55;;;;;;;45.08;21.68;99169.69;5030744;28;20688;-63
2022/08/31 08:42:07;;;;;;;9.55;7.90;;;;;;;45.11;21.42;99162.84;5030426;28;20583;-63
2022/08/31 08:44:36;;;;;;;9.85;7.97;;;;;;;44.47;22.16;99158.78;5030137;28;20255;-62
2022/08/31 08:47:07;;;;;;;9.82;8.88;;;;;;;44.03;22.32;99168.56;5030411;28;20250;-56
2022/08/31 08:49:39;;;;;;;9.68;7.95;;;;;;;44.38;22.47;99157.69;5031035;28;20197;-56
2022/08/31 08:52:11;;;;;;;10.98;8.27;;;;;;;44.62;22.11;99162.59;5030970;28;20612;-56
2022/08/31 08:54:41;;;;;;;9.57;8.18;;;;;;;44.18;22.58;99157.66;5039257;28;20314;-57
2022/08/31 08:57:12;;;;;;;11.23;8.50;;;;;;;44.17;22.75;99153.25;5049941;28;20192;-58
2022/08/31 08:59:42;;;;;;;13.07;8.43;;;;;;;43.39;23.37;99155.19;5051047;28;20199;-56
2022/08/31 09:02:12;;;;;;;11.25;8.75;;;;;;;43.30;23.35;99148.59;5043206;28;20200;-56
2022/08/31 09:04:58;;;;;;;10.18;8.60;;;;;;;43.66;23.12;99153.16;5030744;28;20211;-57
2022/08/31 09:07:43;;;;;;;9.25;8.45;;;;;;;43.92;22.48;99143.06;5030789;28;20256;-57
2022/08/31 09:10:19;;;;;;;12.40;8.52;;;;;;;44.72;22.16;99148.91;5030058;28;20207;-57
2022/08/31 09:12:51;;;;;;;13.73;9.38;;;;;;;44.34;22.23;99145.63;5030637;28;20218;-56
2022/08/31 09:15:48;;;;;;;9.02;8.27;;;;;;;44.66;21.60;99145.38;5033393;28;20742;-62
2022/08/31 09:18:31;;;;;;;7.75;7.15;;;;;;;44.86;21.31;99128.91;5026997;28;20236;-62
2022/08/31 09:21:04;;;;;;;13.77;7.85;;;;;;;45.22;21.12;99135.16;5030612;28;20193;-62
2022/08/31 09:23:37;;;;;;;12.15;7.90;;;;;;;45.59;21.32;99138.59;5030458;28;20209;-63
2022/08/31 09:26:05;;;;;;;10.48;8.55;;;;;;;44.48;22.27;99127.56;5030483;28;20236;-62
2022/08/31 09:28:35;;;;;;;9.32;8.40;;;;;;;44.54;21.80;99131.13;5030233;28;20234;-62
2022/08/31 09:31:04;;;;;;;12.27;8.23;;;;;;;44.25;21.93;99130.03;5030293;28;20197;-56
2022/08/31 09:33:34;;;;;;;11.90;8.02;;;;;;;44.40;21.83;99119.91;5032766;28;20246;-57
2022/08/31 09:36:16;;;;;;;8.40;7.32;;;;;;;43.83;22.71;99125.56;5040011;28;20677;-57
2022/08/31 09:38:45;;;;;;;8.90;7.07;;;;;;;43.54;22.55;99118.91;5040761;28;20664;-58
2022/08/31 09:41:29;;;;;;;9.55;7.80;;;;;;;43.09;22.58;99114.84;5040801;28;20602;-57
2022/08/31 09:44:19;;;;;;;10.60;7.57;;;;;;;43.04;22.74;99099.25;5042577;28;20195;-56
2022/08/31 09:46:49;;;;;;;8.50;7.50;;;;;;;43.50;22.59;99104.94;5035060;28;20196;-57
2022/08/31 09:49:21;;;;;;;10.25;7.38;;;;;;;43.79;22.23;99114.34;5029042;28;20587;-57
2022/08/31 09:51:48;;;;;;;12.23;7.93;;;;;;;43.81;21.93;99101.22;5029059;28;20577;-56
2022/08/31 09:57:06;;;;;;;9.00;8.13;;;;;;;42.19;23.96;99102.16;5049583;28;20234;-58
2022/08/31 09:59:38;;;;;;;16.42;8.43;;;;;;;42.15;23.41;99092.84;5049710;28;20281;-57
2022/08/31 10:02:16;;;;;;;12.98;8.13;;;;;;;41.34;24.32;99087.31;5049972;28;20625;-56
2022/08/31 10:04:50;;;;;;;10.63;8.88;;;;;;;39.89;25.79;99080.19;5049678;28;20199;-57
2022/08/31 10:07:32;;;;;;;15.40;8.20;;;;;;;38.48;27.28;99073.34;5049440;28;20200;-56
2022/08/31 10:10:02;;;;;;;15.70;9.25;;;;;;;37.39;28.92;99063.66;5049465;28;20203;-58
2022/08/31 10:12:40;;;;;;;14.15;9.07;;;;;;;36.13;30.29;99041.59;5049358;28;20282;-56
2022/08/31 10:15:14;;;;;;;11.43;8.65;;;;;;;35.67;31.64;99045.44;5049501;28;20690;-56
2022/08/31 10:17:49;;;;;;;14.68;10.05;;;;;;;35.40;32.48;99046.63;5049910;28;20202;-57
2022/08/31 10:20:20;;;;;;;13.05;9.05;;;;;;;34.88;32.85;99038.50;5049623;28;20230;-57
2022/08/31 10:22:51;;;;;;;15.27;9.27;;;;;;;34.85;32.88;99027.31;5049163;28;20200;-57
2022/08/31 10:25:29;;;;;;;14.63;9.60;;;;;;;34.67;33.49;99027.09;5049998;28;20196;-57
2022/08/31 10:28:05;;;;;;;18.13;10.05;;;;;;;34.45;33.72;99019.28;5048721;28;20320;-57
2022/08/31 10:30:40;;;;;;;12.25;9.63;;;;;;;34.41;33.60;99019.91;5047996;28;20673;-56
2022/08/31 10:33:16;;;;;;;9.90;8.80;;;;;;;34.69;33.54;99019.66;5047983;28;20204;-58
2022/08/31 10:35:53;;;;;;;15.77;9.48;;;;;;;34.75;33.82;99013.44;5048835;28;20196;-56
2022/08/31 10:38:29;;;;;;;11.43;9.15;;;;;;;34.79;33.54;99011.97;5047914;28;20192;-57
2022/08/31 10:41:06;;;;;;;11.82;8.98;;;;;;;34.77;33.74;99014.88;5048602;28;20196;-57
2022/08/31 10:43:39;;;;;;;17.67;9.82;;;;;;;34.90;33.59;99008.63;5048735;28;20201;-56
2022/08/31 10:46:06;;;;;;;11.00;9.70;;;;;;;34.50;34.53;99021.34;5049279;28;20284;-57
2022/08/31 10:48:39;;;;;;;10.38;9.27;;;;;;;34.29;34.45;99011.63;5048773;28;20686;-57
2022/08/31 10:51:21;;;;;;;15.32;9.05;;;;;;;34.31;34.16;99014.13;5049538;28;20274;-57
2022/08/31 10:54:02;;;;;;;10.15;9.20;;;;;;;34.12;34.49;99010.34;5048913;28;20281;-62
2022/08/31 10:56:38;;;;;;;11.20;9.57;;;;;;;33.96;35.19;99008.09;5048963;28;20207;-62
2022/08/31 10:59:24;;;;;;;12.10;9.32;;;;;;;34.01;35.51;99011.81;5049046;28;20196;-63
2022/08/31 11:01:59;;;;;;;11.70;8.98;;;;;;;34.07;34.71;99005.63;5049280;28;20730;-63
2022/08/31 11:04:50;;;;;;;16.33;8.88;;;;;;;33.87;35.66;99004.75;5049073;28;20211;-62
2022/08/31 11:07:31;;;;;;;16.95;9.07;;;;;;;33.68;35.81;99009.06;5049106;28;20200;-62
2022/08/31 11:10:10;;;;;;;17.83;9.57;;;;;;;33.41;36.76;99005.47;5049178;28;20192;-61
2022/08/31 11:12:42;;;;;;;13.90;9.45;;;;;;;33.50;36.45;99006.13;5049028;28;20696;-61
2022/08/31 11:15:34;;;;;;;15.98;8.32;;;;;;;33.80;35.90;99003.94;5048840;28;20197;-62
2022/08/31 11:18:28;;;;;;;18.15;8.25;;;;;;;33.76;36.04;99008.88;5048772;28;20333;-61
2022/08/31 11:21:09;;;;;;;19.23;9.15;;;;;;;33.71;35.99;99015.91;5048790;28;20223;-60
2022/08/31 11:23:53;;;;;;;14.32;8.02;;;;;;;33.61;35.93;99013.63;5048736;28;20207;-61
2022/08/31 11:26:49;;;;;;;14.55;8.52;;;;;;;33.74;35.52;99012.81;5048934;28;20744;-61
2022/08/31 11:29:31;;;;;;;15.98;7.78;;;;;;;33.73;35.53;99003.91;5049040;28;20224;-61
2022/08/31 11:32:05;;;;;;;15.82;8.43;;;;;;;33.70;35.26;99015.06;5048808;28;20291;-62
2022/08/31 11:34:46;;;;;;;20.38;7.93;;;;;;;33.56;35.14;99010.69;5050428;28;20196;-62
2022/08/31 11:37:55;;;;;;;15.77;7.50;;;;;;;33.56;34.46;99008.00;5052365;28;20203;-62
2022/08/31 11:41:02;;;;;;;16.48;7.80;;;;;;;33.56;34.31;99008.00;5052451;28;20668;-57
2022/08/31 11:43:50;;;;;;;14.55;7.22;;;;;;;33.63;34.52;99003.47;5047503;28;20200;-57
2022/08/31 11:46:58;;;;;;;18.85;8.07;;;;;;;33.65;34.55;99016.72;5052357;28;20201;-56
2022/08/31 11:49:44;;;;;;;15.13;7.07;;;;;;;33.66;34.56;99015.69;5060569;28;20673;-56
2022/08/31 11:52:28;;;;;;;12.75;6.22;;;;;;;33.32;34.46;99003.16;5071880;28;20204;-62